createdAt,value
2018-03-25T00:01:50.664Z,93793.83
2018-03-25T00:04:19.167Z,93793.41
2018-03-25T00:06:47.923Z,93795.78
2018-03-25T00:09:16.347Z,93797.36
2018-03-25T00:11:44.790Z,93800.09
2018-03-25T00:14:13.195Z,93803.13
2018-03-25T00:16:41.647Z,93803.30
2018-03-25T00:19:10.017Z,93803.90
2018-03-25T00:21:38.409Z,93800.14
2018-03-25T00:24:06.932Z,93801.30
2018-03-25T00:26:35.347Z,93801.33
2018-03-25T00:29:03.763Z,93799.91
2018-03-25T00:31:32.145Z,93800.30
2018-03-25T00:34:00.587Z,93795.61
2018-03-25T00:36:28.979Z,93791.67
2018-03-25T00:38:57.475Z,93785.77
2018-03-25T00:41:25.853Z,93785.43
2018-03-25T00:43:54.250Z,93779.88
2018-03-25T00:46:22.660Z,93783.76
2018-03-25T00:48:51.149Z,93788.58
2018-03-25T00:51:19.534Z,93783.50
2018-03-25T00:53:47.933Z,93787.16
2018-03-25T00:56:16.327Z,93786.39
2018-03-25T00:58:44.760Z,93785.94
2018-03-25T01:01:13.222Z,93772.85
2018-03-25T01:03:41.633Z,93787.38
2018-03-25T01:06:10.280Z,93784.94
2018-03-25T01:08:38.872Z,93786.31
2018-03-25T01:11:07.412Z,93785.66
2018-03-25T01:13:35.871Z,93782.97
2018-03-25T01:16:10.986Z,93786.78
2018-03-25T01:18:39.449Z,93785.02
2018-03-25T01:21:07.900Z,93778.40
2018-03-25T01:23:36.357Z,93781.17
2018-03-25T01:26:04.777Z,93785.86
2018-03-25T01:28:33.199Z,93780.07
2018-03-25T01:31:01.593Z,93780.95
2018-03-25T01:33:29.983Z,93779.09
2018-03-25T01:35:58.461Z,93782.67
2018-03-25T01:38:26.864Z,93781.48
2018-03-25T01:40:55.256Z,93781.03
2018-03-25T01:43:23.779Z,93790.80
2018-03-25T01:45:52.174Z,93789.89
2018-03-25T01:48:20.666Z,93787.98
2018-03-25T01:50:49.038Z,93780.42
2018-03-25T01:53:17.443Z,93779.59
2018-03-25T01:55:45.816Z,93775.24
2018-03-25T01:58:14.241Z,93772.90
2018-03-25T02:00:42.672Z,93770.62
2018-03-25T02:03:11.072Z,93772.49
2018-03-25T02:05:39.453Z,93772.66
2018-03-25T02:08:07.822Z,93775.16
2018-03-25T02:10:36.244Z,93775.09
2018-03-25T02:13:04.810Z,93771.77
2018-03-25T02:15:33.203Z,93773.76
2018-03-25T02:18:01.587Z,93774.27
2018-03-25T02:20:29.984Z,93767.72
2018-03-25T02:22:58.361Z,93762.63
2018-03-25T02:25:26.884Z,93769.04
2018-03-25T02:27:55.309Z,93768.52
2018-03-25T02:30:23.674Z,93765.45
2018-03-25T02:32:52.201Z,93766.47
2018-03-25T02:35:20.609Z,93765.77
2018-03-25T02:37:49.062Z,93770.82
2018-03-25T02:40:17.477Z,93770.14
2018-03-25T02:42:45.875Z,93768.98
2018-03-25T02:45:14.286Z,93771.47
2018-03-25T02:47:42.693Z,93773.69
2018-03-25T02:50:11.139Z,93768.33
2018-03-25T02:52:39.525Z,93767.94
2018-03-25T02:55:08.082Z,93773.25
2018-03-25T02:57:36.468Z,93775.22
2018-03-25T03:02:45.426Z,93782.51
2018-03-25T03:05:13.786Z,93785.74
2018-03-25T03:07:42.240Z,93790.20
2018-03-25T03:10:10.643Z,93790.31
2018-03-25T03:12:39.021Z,93790.70
2018-03-25T03:15:07.399Z,93792.48
2018-03-25T03:17:35.785Z,93789.05
2018-03-25T03:20:04.315Z,93794.91
2018-03-25T03:22:32.693Z,93791.50
2018-03-25T03:25:01.109Z,93796.64
2018-03-25T03:27:29.486Z,93795.75
2018-03-25T03:29:57.937Z,93803.91
2018-03-25T03:32:26.345Z,93801.02
2018-03-25T03:34:54.727Z,93803.86
2018-03-25T03:37:23.121Z,93807.44
2018-03-25T03:39:51.492Z,93801.27
2018-03-25T03:42:19.917Z,93802.48
2018-03-25T03:44:48.388Z,93803.83
2018-03-25T03:47:16.804Z,93809.56
2018-03-25T03:49:45.222Z,93813.31
2018-03-25T03:52:13.663Z,93804.29
2018-03-25T03:54:42.372Z,93807.99
2018-03-25T03:57:10.747Z,93814.92
2018-03-25T03:59:39.113Z,93811.55
2018-03-25T04:02:07.517Z,93815.73
2018-03-25T04:04:35.937Z,93810.13
2018-03-25T04:07:04.392Z,93815.95
2018-03-25T04:09:32.832Z,93821.17
2018-03-25T04:12:01.323Z,93818.12
2018-03-25T04:14:29.731Z,93824.60
2018-03-25T04:16:58.114Z,93813.88
2018-03-25T04:19:26.534Z,93815.73
2018-03-25T04:21:54.924Z,93822.73
2018-03-25T04:24:23.355Z,93822.04
2018-03-25T04:26:51.771Z,93828.05
2018-03-25T04:29:20.167Z,93825.27
2018-03-25T04:31:48.572Z,93829.34
2018-03-25T04:34:19.895Z,93830.03
2018-03-25T04:36:48.308Z,93830.14
2018-03-25T04:39:16.711Z,93830.25
2018-03-25T04:41:45.277Z,93834.27
2018-03-25T04:44:13.677Z,93833.02
2018-03-25T04:46:42.100Z,93837.17
2018-03-25T04:49:10.508Z,93834.99
2018-03-25T04:51:38.918Z,93835.80
2018-03-25T04:54:07.462Z,93837.83
2018-03-25T04:56:35.908Z,93837.28
2018-03-25T04:59:04.308Z,93835.91
2018-03-25T05:01:32.729Z,93833.98
2018-03-25T05:04:01.155Z,93830.50
2018-03-25T05:06:29.528Z,93836.84
2018-03-25T05:08:58.026Z,93835.26
2018-03-25T05:11:26.460Z,93834.42
2018-03-25T05:13:55.017Z,93841.02
2018-03-25T05:16:23.382Z,93837.28
2018-03-25T05:18:51.861Z,93841.14
2018-03-25T05:21:20.231Z,93838.53
2018-03-25T05:23:48.605Z,93840.58
2018-03-25T05:26:17.017Z,93841.64
2018-03-25T05:28:45.397Z,93843.99
2018-03-25T05:31:13.799Z,93850.37
2018-03-25T05:33:42.275Z,93840.72
2018-03-25T05:36:10.653Z,93845.39
2018-03-25T05:38:39.032Z,93852.83
2018-03-25T05:41:07.419Z,93854.08
2018-03-25T05:43:35.838Z,93853.70
2018-03-25T05:46:04.275Z,93845.90
2018-03-25T05:48:32.702Z,93849.95
2018-03-25T05:51:01.185Z,93857.03
2018-03-25T05:53:29.572Z,93861.32
2018-03-25T05:55:58.019Z,93861.00
2018-03-25T05:58:26.530Z,93864.83
2018-03-25T06:00:54.934Z,93863.05
2018-03-25T06:03:23.484Z,93866.75
2018-03-25T06:05:51.978Z,93866.68
2018-03-25T06:08:20.472Z,93863.73
2018-03-25T06:10:48.904Z,93872.71
2018-03-25T06:13:17.833Z,93868.98
2018-03-25T06:15:47.185Z,93877.55
2018-03-25T06:18:15.604Z,93875.36
2018-03-25T06:20:44.025Z,93880.70
2018-03-25T06:23:12.433Z,93881.27
2018-03-25T06:25:40.841Z,93876.22
2018-03-25T06:28:09.345Z,93886.84
2018-03-25T06:30:37.763Z,93887.77
2018-03-25T06:33:06.173Z,93888.87
2018-03-25T06:35:34.563Z,93898.16
2018-03-25T06:38:03.003Z,93902.44
2018-03-25T06:40:31.451Z,93901.05
2018-03-25T06:42:59.961Z,93902.08
2018-03-25T06:45:28.399Z,93895.37
2018-03-25T06:47:56.842Z,93903.81
2018-03-25T06:50:25.265Z,93894.73
2018-03-25T06:52:53.727Z,93905.39
2018-03-25T06:55:22.156Z,93909.83
2018-03-25T06:57:50.557Z,93912.73
2018-03-25T07:00:19.024Z,93915.16
2018-03-25T07:02:47.429Z,93919.47
2018-03-25T07:05:15.879Z,93918.36
2018-03-25T07:07:44.299Z,93923.42
2018-03-25T07:10:12.718Z,93922.20
2018-03-25T07:12:41.263Z,93927.27
2018-03-25T07:15:09.666Z,93932.49
2018-03-25T07:17:38.146Z,93927.17
2018-03-25T07:20:06.676Z,93928.22
2018-03-25T07:22:35.112Z,93931.07
2018-03-25T07:25:03.640Z,93935.26
2018-03-25T07:27:32.105Z,93937.14
2018-03-25T07:30:00.636Z,93938.06
2018-03-25T07:32:29.124Z,93937.55
2018-03-25T07:34:57.599Z,93930.97
2018-03-25T07:37:25.965Z,93940.50
2018-03-25T07:39:54.392Z,93943.39
2018-03-25T07:42:23.129Z,93944.67
2018-03-25T07:44:51.668Z,93942.22
2018-03-25T07:47:20.049Z,93944.23
2018-03-25T07:49:48.519Z,93944.49
2018-03-25T07:52:16.958Z,93953.31
2018-03-25T07:54:45.434Z,93948.52
2018-03-25T07:57:13.850Z,93945.97
2018-03-25T07:59:42.241Z,93951.36
2018-03-25T08:02:10.614Z,93957.70
2018-03-25T08:04:38.993Z,93956.56
2018-03-25T08:07:07.435Z,93957.87
2018-03-25T08:09:35.877Z,93958.20
2018-03-25T08:12:04.311Z,93964.70
2018-03-25T08:14:32.716Z,93962.81
2018-03-25T08:17:01.152Z,93964.53
2018-03-25T08:19:29.665Z,93967.06
2018-03-25T08:21:58.157Z,93968.91
2018-03-25T08:24:26.585Z,93965.28
2018-03-25T08:26:55.019Z,93967.16
2018-03-25T08:29:23.442Z,93964.08
2018-03-25T08:31:52.144Z,93968.22
2018-03-25T08:34:20.557Z,93967.44
2018-03-25T08:36:48.970Z,93964.95
2018-03-25T08:39:17.390Z,93963.09
2018-03-25T08:41:45.870Z,93967.19
2018-03-25T08:44:14.317Z,93968.08
2018-03-25T08:46:42.737Z,93966.08
2018-03-25T08:49:11.191Z,93967.39
2018-03-25T08:51:39.646Z,93969.11
2018-03-25T08:54:08.130Z,93969.85
2018-03-25T08:56:36.563Z,93974.19
2018-03-25T08:59:05.058Z,93973.26
2018-03-25T09:01:33.584Z,93978.06
2018-03-25T09:04:02.025Z,93974.79
2018-03-25T09:06:30.430Z,93978.11
2018-03-25T09:08:58.846Z,93975.84
2018-03-25T09:11:27.271Z,93980.84
2018-03-25T09:13:55.731Z,93976.45
2018-03-25T09:16:24.132Z,93972.52
2018-03-25T09:18:52.542Z,93972.86
2018-03-25T09:21:21.087Z,93973.19
2018-03-25T09:23:49.485Z,93978.28
2018-03-25T09:26:18.020Z,93975.94
2018-03-25T09:28:46.437Z,93984.12
2018-03-25T09:31:14.927Z,93978.77
2018-03-25T09:33:43.394Z,93984.62
2018-03-25T09:36:11.812Z,93981.00
2018-03-25T09:38:40.244Z,93984.30
2018-03-25T09:41:08.702Z,93980.97
2018-03-25T09:43:37.105Z,93977.67
2018-03-25T09:46:05.535Z,93985.95
2018-03-25T09:48:34.174Z,93982.83
2018-03-25T09:51:02.621Z,93987.08
2018-03-25T09:53:31.047Z,93990.00
2018-03-25T09:55:59.535Z,93991.80
2018-03-25T09:58:28.098Z,93992.17
2018-03-25T10:01:02.213Z,93993.66
2018-03-25T10:03:32.543Z,93997.92
2018-03-25T10:06:01.725Z,94000.34
2018-03-25T10:08:30.193Z,93996.63
2018-03-25T10:10:58.592Z,94006.41
2018-03-25T10:13:27.002Z,94002.20
2018-03-25T10:15:55.604Z,94004.97
2018-03-25T10:18:24.176Z,94005.36
2018-03-25T10:20:52.760Z,94010.72
2018-03-25T10:23:21.377Z,94007.70
2018-03-25T10:25:50.059Z,94006.53
2018-03-25T10:28:18.494Z,94011.28
2018-03-25T10:30:47.012Z,94009.09
2018-03-25T10:33:15.408Z,94015.95
2018-03-25T10:35:44.015Z,94017.42
2018-03-25T10:38:12.539Z,94017.58
2018-03-25T10:40:41.022Z,94015.77
2018-03-25T10:43:09.467Z,94018.22
2018-03-25T10:45:37.885Z,94019.53
2018-03-25T10:48:06.349Z,94013.25
2018-03-25T10:50:34.780Z,94010.34
2018-03-25T10:53:03.268Z,94013.83
2018-03-25T10:55:31.695Z,94014.97
2018-03-25T10:58:00.150Z,94020.88
2018-03-25T11:00:28.671Z,94018.63
2018-03-25T11:02:57.045Z,94010.56
2018-03-25T11:05:25.444Z,94014.89
2018-03-25T11:07:53.851Z,94017.97
2018-03-25T11:10:22.265Z,94016.89
2018-03-25T11:12:50.735Z,94004.67
2018-03-25T11:15:19.252Z,94010.37
2018-03-25T11:17:47.647Z,94012.17
2018-03-25T11:20:16.055Z,94012.59
2018-03-25T11:22:44.653Z,94015.10
2018-03-25T11:25:13.250Z,94022.28
2018-03-25T11:27:41.697Z,94020.28
2018-03-25T11:30:10.149Z,94023.50
2018-03-25T11:32:38.620Z,94020.92
2018-03-25T11:35:07.060Z,94019.76
2018-03-25T11:37:35.514Z,94021.66
2018-03-25T11:40:04.046Z,94022.55
2018-03-25T11:42:32.543Z,94031.94
2018-03-25T11:45:00.953Z,94014.66
2018-03-25T11:47:29.563Z,94018.12
2018-03-25T11:49:58.034Z,94018.84
2018-03-25T11:52:26.811Z,94018.80
2018-03-25T11:54:55.625Z,94018.77
2018-03-25T11:57:24.026Z,94017.73
2018-03-25T11:59:52.457Z,94021.12
2018-03-25T12:02:20.855Z,94017.64
2018-03-25T12:04:49.248Z,94029.62
2018-03-25T12:07:17.720Z,94026.06
2018-03-25T12:09:46.227Z,94025.92
2018-03-25T12:12:14.603Z,94031.37
2018-03-25T12:14:42.994Z,94031.30
2018-03-25T12:17:11.425Z,94020.00
2018-03-25T12:19:39.807Z,94027.19
2018-03-25T12:22:08.253Z,94029.16
2018-03-25T12:24:36.674Z,94033.97
2018-03-25T12:27:05.083Z,94032.90
2018-03-25T12:29:33.447Z,94028.34
2018-03-25T12:32:02.485Z,94032.02
2018-03-25T12:34:30.926Z,94031.44
2018-03-25T12:36:59.378Z,94028.77
2018-03-25T12:39:28.936Z,94027.28
2018-03-25T12:41:57.502Z,94030.83
2018-03-25T12:44:25.947Z,94023.71
2018-03-25T12:46:54.506Z,94022.91
2018-03-25T12:49:22.938Z,94027.11
2018-03-25T12:51:51.446Z,94030.70
2018-03-25T12:54:20.187Z,94032.69
2018-03-25T12:56:48.717Z,94031.20
2018-03-25T12:59:17.788Z,94024.45
2018-03-25T13:01:46.226Z,94024.56
2018-03-25T13:04:14.764Z,94025.90
2018-03-25T13:06:43.196Z,94027.03
2018-03-25T13:09:11.612Z,94027.14
2018-03-25T13:11:40.034Z,94029.31
2018-03-25T13:14:08.451Z,94027.16
2018-03-25T13:16:36.863Z,94031.84
2018-03-25T13:19:06.278Z,94030.05
2018-03-25T13:21:34.681Z,94032.81
2018-03-25T13:24:03.183Z,94035.19
2018-03-25T13:26:31.618Z,94029.60
2018-03-25T13:29:00.034Z,94031.64
2018-03-25T13:31:28.488Z,94029.80
2018-03-25T13:33:56.908Z,94033.82
2018-03-25T13:36:25.319Z,94030.79
2018-03-25T13:38:53.717Z,94028.40
2018-03-25T13:41:22.718Z,94035.50
2018-03-25T13:43:52.107Z,94039.69
2018-03-25T13:46:20.556Z,94036.75
2018-03-25T13:48:49.021Z,94043.37
2018-03-25T13:51:17.476Z,94041.67
2018-03-25T13:53:45.967Z,94040.64
2018-03-25T13:56:14.376Z,94047.95
2018-03-25T13:58:42.818Z,94046.80
2018-03-25T14:01:11.313Z,94045.94
2018-03-25T14:03:39.765Z,94046.23
2018-03-25T14:06:08.192Z,94048.44
2018-03-25T14:08:36.689Z,94047.73
2018-03-25T14:11:05.141Z,94046.64
2018-03-25T14:13:33.748Z,94046.41
2018-03-25T14:16:02.169Z,94047.91
2018-03-25T14:18:30.834Z,94049.26
2018-03-25T14:20:59.260Z,94047.45
2018-03-25T14:23:27.665Z,94051.33
2018-03-25T14:25:56.075Z,94055.69
2018-03-25T14:28:24.507Z,94056.28
2018-03-25T14:30:52.971Z,94049.57
2018-03-25T14:33:21.336Z,94057.06
2018-03-25T14:35:49.795Z,94055.14
2018-03-25T14:38:18.185Z,94058.30
2018-03-25T14:40:46.728Z,94051.95
2018-03-25T14:43:15.223Z,94050.75
2018-03-25T14:45:43.651Z,94056.36
2018-03-25T14:48:12.114Z,94053.11
2018-03-25T14:50:40.567Z,94050.88
2018-03-25T14:53:08.981Z,94049.39
2018-03-25T14:55:37.389Z,94053.31
2018-03-25T14:58:05.800Z,94050.52
2018-03-25T15:00:34.283Z,94063.63
2018-03-25T15:03:02.743Z,94056.99
2018-03-25T15:05:33.571Z,94056.51
2018-03-25T15:08:02.588Z,94059.97
2018-03-25T15:10:31.003Z,94064.76
2018-03-25T15:12:59.627Z,94063.09
2018-03-25T15:15:28.061Z,94062.11
2018-03-25T15:17:57.632Z,94068.61
2018-03-25T15:20:27.602Z,94064.09
2018-03-25T15:22:56.027Z,94069.91
2018-03-25T15:25:24.495Z,94073.54
2018-03-25T15:27:52.952Z,94073.60
2018-03-25T15:30:21.397Z,94079.45
2018-03-25T15:32:50.579Z,94079.52
2018-03-25T15:35:20.486Z,94072.44
2018-03-25T15:37:50.035Z,94073.86
2018-03-25T15:40:18.502Z,94077.57
2018-03-25T15:42:46.919Z,94080.35
2018-03-25T15:45:16.102Z,94078.14
2018-03-25T15:47:44.515Z,94087.72
2018-03-25T15:50:13.059Z,94093.91
2018-03-25T15:52:41.588Z,94087.14
2018-03-25T15:55:10.167Z,94090.24
2018-03-25T15:57:38.603Z,94093.67
2018-03-25T16:00:07.845Z,94096.49
2018-03-25T16:02:36.312Z,94096.49
2018-03-25T16:05:04.730Z,94095.30
2018-03-25T16:07:33.197Z,94099.51
2018-03-25T16:10:01.736Z,94096.80
2018-03-25T16:12:30.248Z,94092.99
2018-03-25T16:14:58.856Z,94097.98
2018-03-25T16:17:27.361Z,94097.45
2018-03-25T16:19:55.907Z,94100.02
2018-03-25T16:22:24.687Z,94112.35
2018-03-25T16:24:53.157Z,94116.81
2018-03-25T16:27:21.548Z,94111.63
2018-03-25T16:29:50.996Z,94115.91
2018-03-25T16:32:19.465Z,94124.06
2018-03-25T16:34:47.885Z,94120.17
2018-03-25T16:37:16.300Z,94121.39
2018-03-25T16:39:44.849Z,94122.34
2018-03-25T16:42:13.296Z,94119.69
2018-03-25T16:44:41.822Z,94125.85
2018-03-25T16:47:10.381Z,94133.07
2018-03-25T16:49:38.832Z,94138.22
2018-03-25T16:52:07.257Z,94140.61
2018-03-25T16:54:35.707Z,94141.61
2018-03-25T16:57:04.269Z,94149.31
2018-03-25T16:59:32.777Z,94151.17
2018-03-25T17:02:01.225Z,94153.14
2018-03-25T17:04:29.716Z,94153.70
2018-03-25T17:06:58.151Z,94161.98
2018-03-25T17:09:26.565Z,94164.80
2018-03-25T17:11:54.978Z,94164.56
2018-03-25T17:14:23.433Z,94174.62
2018-03-25T17:16:51.924Z,94172.52
2018-03-25T17:19:20.403Z,94170.87
2018-03-25T17:21:48.807Z,94178.81
2018-03-25T17:24:17.334Z,94181.53
2018-03-25T17:26:45.788Z,94186.84
2018-03-25T17:29:14.335Z,94191.70
2018-03-25T17:31:42.800Z,94190.70
2018-03-25T17:34:11.255Z,94192.70
2018-03-25T17:36:39.689Z,94190.91
2018-03-25T17:39:08.117Z,94192.30
2018-03-25T17:41:36.888Z,94196.08
2018-03-25T17:44:05.395Z,94198.08
2018-03-25T17:46:33.806Z,94202.10
2018-03-25T17:49:02.221Z,94200.74
2018-03-25T17:51:30.611Z,94199.59
2018-03-25T17:53:59.029Z,94205.77
2018-03-25T17:56:27.533Z,94205.39
2018-03-25T17:58:55.995Z,94207.97
2018-03-25T18:01:24.418Z,94207.70
2018-03-25T18:03:52.822Z,94210.69
2018-03-25T18:06:21.275Z,94214.11
2018-03-25T18:08:49.792Z,94219.48
2018-03-25T18:11:18.200Z,94225.20
2018-03-25T18:13:46.630Z,94230.09
2018-03-25T18:16:15.147Z,94229.66
2018-03-25T18:18:43.584Z,94239.91
2018-03-25T18:21:12.050Z,94230.73
2018-03-25T18:23:40.448Z,94244.41
2018-03-25T18:26:08.941Z,94251.23
2018-03-25T18:28:37.389Z,94249.73
2018-03-25T18:31:05.873Z,94250.69
2018-03-25T18:33:34.285Z,94251.31
2018-03-25T18:36:02.687Z,94256.52
2018-03-25T18:38:31.156Z,94253.50
2018-03-25T18:40:59.539Z,94256.98
2018-03-25T18:43:27.964Z,94264.41
2018-03-25T18:45:56.400Z,94266.09
2018-03-25T18:48:24.796Z,94270.66
2018-03-25T18:50:53.285Z,94268.97
2018-03-25T18:53:21.680Z,94265.03
2018-03-25T18:55:50.097Z,94266.05
2018-03-25T18:58:18.491Z,94276.98
2018-03-25T19:00:46.929Z,94276.77
2018-03-25T19:03:15.482Z,94283.12
2018-03-25T19:05:43.871Z,94276.85
2018-03-25T19:08:12.271Z,94283.55
2018-03-25T19:10:40.717Z,94285.91
2018-03-25T19:13:09.119Z,94283.87
2018-03-25T19:15:37.699Z,94284.53
2018-03-25T19:18:06.086Z,94288.27
2018-03-25T19:20:34.493Z,94297.27
2018-03-25T19:23:02.880Z,94298.39
2018-03-25T19:25:31.325Z,94294.94
2018-03-25T19:27:59.769Z,94303.51
2018-03-25T19:30:28.160Z,94300.34
2018-03-25T19:32:56.651Z,94301.34
2018-03-25T19:35:25.033Z,94302.28
2018-03-25T19:37:53.472Z,94309.19
2018-03-25T19:40:21.858Z,94302.98
2018-03-25T19:42:50.244Z,94302.33
2018-03-25T19:45:18.735Z,94307.06
2018-03-25T19:47:47.135Z,94308.87
2018-03-25T19:50:15.547Z,94305.59
2018-03-25T19:52:43.960Z,94311.74
2018-03-25T19:55:12.379Z,94310.95
2018-03-25T19:57:40.951Z,94315.03
2018-03-25T20:00:09.350Z,94313.27
2018-03-25T20:02:37.753Z,94314.83
2018-03-25T20:05:06.125Z,94317.39
2018-03-25T20:07:34.518Z,94313.30
2018-03-25T20:10:02.934Z,94316.39
2018-03-25T20:12:31.295Z,94322.28
2018-03-25T20:14:59.702Z,94324.53
2018-03-25T20:17:28.198Z,94316.36
2018-03-25T20:19:56.605Z,94319.61
2018-03-25T20:22:24.984Z,94321.12
2018-03-25T20:24:53.473Z,94320.99
2018-03-25T20:27:21.869Z,94322.35
2018-03-25T20:29:50.236Z,94326.77
2018-03-25T20:32:18.612Z,94327.52
2018-03-25T20:34:47.019Z,94328.53
2018-03-25T20:37:15.379Z,94331.53
2018-03-25T20:39:43.770Z,94329.87
2018-03-25T20:42:12.188Z,94338.16
2018-03-25T20:44:40.688Z,94329.19
2018-03-25T20:47:09.075Z,94330.56
2018-03-25T20:49:37.457Z,94334.48
2018-03-25T20:52:05.911Z,94342.30
2018-03-25T20:54:34.433Z,94340.38
2018-03-25T20:57:02.803Z,94350.63
2018-03-25T20:59:31.210Z,94356.56
2018-03-25T21:01:59.584Z,94351.41
2018-03-25T21:04:27.975Z,94352.57
2018-03-25T21:06:56.454Z,94358.48
2018-03-25T21:09:24.844Z,94349.62
2018-03-25T21:11:53.314Z,94350.77
2018-03-25T21:14:21.691Z,94352.89
2018-03-25T21:16:50.094Z,94350.49
2018-03-25T21:19:18.453Z,94346.00
2018-03-25T21:21:46.829Z,94350.83
2018-03-25T21:24:15.232Z,94352.62
2018-03-25T21:26:43.642Z,94353.93
2018-03-25T21:29:12.079Z,94353.52
2018-03-25T21:31:40.609Z,94357.89
2018-03-25T21:34:08.985Z,94360.57
2018-03-25T21:36:37.368Z,94355.16
2018-03-25T21:39:05.769Z,94362.84
2018-03-25T21:41:34.138Z,94364.11
2018-03-25T21:44:02.514Z,94361.86
2018-03-25T21:46:30.881Z,94355.39
2018-03-25T21:48:59.412Z,94351.78
2018-03-25T21:51:27.776Z,94355.06
2018-03-25T21:53:56.142Z,94354.58
2018-03-25T21:56:24.535Z,94356.10
2018-03-25T21:58:52.900Z,94359.88
2018-03-25T22:01:21.289Z,94360.02
2018-03-25T22:03:49.688Z,94364.12
2018-03-25T22:06:18.212Z,94361.87
2018-03-25T22:08:46.629Z,94369.48
2018-03-25T22:11:15.012Z,94371.24
2018-03-25T22:13:43.388Z,94365.62
2018-03-25T22:16:11.751Z,94372.69
2018-03-25T22:18:51.843Z,94367.61
2018-03-25T22:21:20.232Z,94378.26
2018-03-25T22:23:48.788Z,94371.25
2018-03-25T22:26:17.156Z,94369.05
2018-03-25T22:28:45.533Z,94380.58
2018-03-25T22:31:14.118Z,94377.87
2018-03-25T22:33:42.639Z,94371.59
2018-03-25T22:36:11.159Z,94373.45
2018-03-25T22:38:39.583Z,94369.59
2018-03-25T22:41:07.964Z,94365.03
2018-03-25T22:43:36.333Z,94364.91
2018-03-25T22:46:05.703Z,94370.16
2018-03-25T22:48:34.449Z,94370.95
2018-03-25T22:51:02.871Z,94374.16
2018-03-25T22:53:31.344Z,94373.72
2018-03-25T22:55:59.788Z,94377.31
2018-03-25T22:58:28.194Z,94376.05
2018-03-25T23:00:56.605Z,94378.06
2018-03-25T23:03:24.975Z,94374.61
2018-03-25T23:05:53.365Z,94373.27
2018-03-25T23:08:21.789Z,94378.27
2018-03-25T23:10:50.200Z,94376.87
2018-03-25T23:13:18.572Z,94370.69
2018-03-25T23:15:46.946Z,94369.79
2018-03-25T23:18:15.347Z,94379.72
2018-03-25T23:20:43.722Z,94373.45
2018-03-25T23:23:12.308Z,94374.16
2018-03-25T23:25:40.688Z,94382.76
2018-03-25T23:28:09.075Z,94379.73
2018-03-25T23:30:37.450Z,94379.53
2018-03-25T23:33:05.829Z,94376.57
2018-03-25T23:35:34.244Z,94371.98
2018-03-25T23:38:02.627Z,94374.66
2018-03-25T23:40:31.044Z,94373.42
2018-03-25T23:42:59.436Z,94372.56
2018-03-25T23:45:27.807Z,94383.39
2018-03-25T23:47:56.181Z,94375.11
2018-03-25T23:50:24.620Z,94378.97
2018-03-25T23:52:53.059Z,94377.50
2018-03-25T23:55:21.462Z,94379.95
2018-03-25T23:57:49.828Z,94375.94
